Warning: Javascript must be enabled to use all the features on this page!


Page Loading - Please Wait...

Click to hideNews Bulletins

Peak Streamflow for Idaho

Click to hide state-specific text

USGS 13239000 NF PAYETTE RIVER AT MCCALL ID

Valley County, Idaho
Hydrologic Unit Code 17050123
Latitude  44°54'26", Longitude 116°07'09" NAD83
Drainage area 144  square miles
Contributing drainage area 144  square miles
Gage datum 4,967.75 feet above NGVD29
Output formats
Table
Graph
Tab-separated file
peakfq (watstore) format
Reselect output format
Water
Year
Date Gage
Height
(feet)
Stream-
flow
(cfs)
1909 1909-06-05 7.50 4,2501
1910 1910-05-10 6.00 2,7601
1911 1911-06-17 7.30 4,0901
1912 1912-06-08 6.50 3,0201
1913 1913-06-03 7.40 3,6401
1914 1914-05-25 6.40 2,7301
1915 1915-05-23 4.80 1,3001
1916 1916-06-19 7.20 3,4101
1917 1917-06-20 6.60 2,9801
1920 1920-06-10 6.70 3,0701
1921 1921-06-09 7.15 3,5901
1922 1922-06-07 7.30 3,6901
1923 1923-06-11 6.50 2,9001,6
1924 1924-05-13 5.90 2,4906
1925 1925-05-21 6.42 3,0206
1926 1926-05-05 5.32 1,9006
1927 1927-06-14 6.67 3,4606
1928 1928-05-27 6.95 3,5701,6
1929 1929-05-25 5.85 2,4306
1930 1930-05-30 5.22 1,7406
1931 1931-05-16 5.10 1,6606
1932 1932-05-22 6.71 3,3206
1933 1933-06-10 7.50 4,2601,6
1934 1934-04-25 5.38 2,0006
1935 1935-05-25 5.81 2,3006
1936 1936-05-15 6.80 3,3006
1937 1937-05-28 5.53 2,0006
1938 1938-06-07 6.86 3,4406
1939 1939-05-05 5.59 2,1006
1940 1940-05-25 6.04 2,5006
1941 1941-05-27 6.05 2,5006
1942 1942-05-26 6.87 3,4406
1943 1943-06-01 6.88 3,4406
1944 1944-06-01 6.57 3,0806
1945 1945-06-06 5.98 2,4206
1946 1946-05-28 6.00 2,4406
1947 1947-05-09 6.99 3,4706
1948 1948-06-04 7.71 4,2606
1949 1949-05-16 6.77 3,2306
1950 1950-06-22 6.47 2,9006
1951 1951-05-28 5.97 2,4006
1952 1952-06-08 6.62 3,1306
1953 1953-06-15 6.21 2,6606
1954 1954-05-21 6.76 3,2206
1955 1955-06-14 6.39 2,8206
1956 1956-06-01 6.89 3,5506
1957 1957-06-06 6.65 3,1006
1958 1958-05-25 6.93 3,5406
1959 1959-06-15 6.02 2,4906
1960 1960-06-05 6.20 2,7406
1961 1961-06-03 6.66 3,2206
1962 1962-06-20 5.87 2,3306
1963 1963-05-24 6.24 2,7106
1964 1964-06-07 6.69 3,2406
1965 1965-06-13 6.73 3,2606
1966 1966-05-30 5.86 2,3406
1967 1967-06-22 7.15 3,7206
1968 1968-06-04 5.76 2,3206
1969 1969-05-27 6.43 2,9006
1970 1970-06-07 7.22 3,8206
1971 1971-06-26 7.08 3,6806
1972 1972-06-11 7.28 3,8206
1973 1973-05-20 6.02 2,5006
1974 1974-06-19 8.16 4,9506
1975 1975-07-04 6.74 3,3306
1976 1976-05-26 5.78 2,3406
1977 1977-05-24 3.83 7506
1978 1978-06-09 6.24 2,8406
1979 1979-05-27 5.81 2,3406
1980 1980-05-09 5.84 2,4506
1981 1981-06-09 7.06 3,8606
1982 1982-06-23 6.90 3,5406
1983 1983-05-31 7.10 3,8006
1984 1984-06-21 6.93 3,5406
1985 1985-05-27 6.01 2,4406
1986 1986-06-01 7.37 4,0406
1987 1987-06-02 4.38 1,0506
1988 1988-05-17 6.29 2,7206
1989 1989-06-16 5.95 2,4106
1990 1990-04-23 5.41 1,9406
1991 1991-05-26 5.35 1,8806
1992 1992-05-06 4.79 1,4006
1993 1993-05-21 6.67 3,2106
1994 1994-05-09 4.78 1,4006
1995 1995-06-05 6.89 3,2206
1996 1996-05-18 7.82 4,5706
1997 1997-05-18 7.62 4,3206
1998 1998-05-11 6.72 3,2706
1999 1999-05-30 7.58 4,2706
2000 2000-05-23 5.85 2,3506
2001 2001-05-16 6.05 2,5506
2002 2002-05-31 6.58 3,1106
2003 2003-05-31 8.03 4,8106
2004 2004-05-29 6.07 2,5306
2005 2005-05-20 6.54 3,0706
2006 2006-05-21 8.14 4,9806
2007 2007-05-13 5.72 2,2306
2008 2008-05-21 7.00 3,5806
2009 2009-05-25 6.71 3,3006
2010 2010-06-05 8.05 4,9006
2011 2011-06-24 6.81 3,4206
2012 2012-04-27 6.41 2,9806
2013 2013-05-15 6.55 3,1306
2014 2014-05-25 6.38 2,9506
2015 2015-05-20 4.51 1,2006
2016 2016-05-09 6.60 3,2006
2017 2017-06-02 7.18 3,9106
2018 2018-05-17 6.24 2,8006
2019 2019-05-17 6.40 2,9706
2020 2020-05-31 7.32 3,9106
?
  Peak Streamflow Qualification Codes.